Time;durP1;ratioP1;P1;durP2;ratioP2;P2;SDS_P1;SDS_P2;PMS_P1;PMS_P2;Temp;Humidity;BMP_temperature;BMP_pressure;BME280_temperature;BME280_humidity;BME280_pressure;Samples;Min_cycle;Max_cycle;Signal;HPM_P1;HPM_P2
2023/07/24 00:00:40;;;;;;;0.88;0.88;;;;;;;;;;5020655;28;20195;-91
2023/07/24 00:03:08;;;;;;;0.88;0.88;;;;;;;;;;5021274;28;20198;-90
2023/07/24 00:05:35;;;;;;;0.70;0.70;;;;;;;;;;5021238;28;20213;-91
2023/07/24 00:08:05;;;;;;;0.80;0.80;;;;;;;;;;5021172;28;20203;-92
2023/07/24 00:10:33;;;;;;;0.82;0.82;;;;;;;;;;5020874;28;20196;-93
2023/07/24 00:13:01;;;;;;;0.73;0.73;;;;;;;;;;5020977;28;20188;-94
2023/07/24 00:15:28;;;;;;;1.92;1.10;;;;;;;;;;5020937;28;20204;-92
2023/07/24 00:17:56;;;;;;;1.10;1.10;;;;;;;;;;5021066;28;20267;-93
2023/07/24 00:20:24;;;;;;;1.02;1.02;;;;;;;;;;5020771;28;20206;-92
2023/07/24 00:22:52;;;;;;;2.88;1.23;;;;;;;;;;5020772;28;20183;-91
2023/07/24 00:25:21;;;;;;;1.00;1.00;;;;;;;;;;5019836;28;20476;-91
2023/07/24 00:27:49;;;;;;;1.00;0.90;;;;;;;;;;5010575;28;20192;-92
2023/07/24 00:30:16;;;;;;;0.88;0.88;;;;;;;;;;5001021;28;20219;-93
2023/07/24 00:32:44;;;;;;;0.90;0.90;;;;;;;;;;5001065;28;20223;-92
2023/07/24 00:35:11;;;;;;;0.70;0.70;;;;;;;;;;5001132;28;20200;-92
2023/07/24 00:37:39;;;;;;;1.38;1.27;;;;;;;;;;5001171;28;20208;-93
2023/07/24 00:40:09;;;;;;;0.57;0.57;;;;;;;;;;5000963;28;20181;-93
2023/07/24 00:42:38;;;;;;;1.00;0.90;;;;;;;;;;5000827;28;20212;-90
2023/07/24 00:45:08;;;;;;;1.45;1.35;;;;;;;;;;5001065;28;20181;-92
2023/07/24 00:47:36;;;;;;;4.90;2.95;;;;;;;;;;5000967;28;20204;-91
2023/07/24 00:50:04;;;;;;;1.40;1.25;;;;;;;;;;5000818;28;20196;-94
2023/07/24 00:52:32;;;;;;;1.33;0.90;;;;;;;;;;5000401;28;20235;-89
2023/07/24 00:55:00;;;;;;;2.17;1.60;;;;;;;;;;5000753;28;20200;-93
2023/07/24 00:57:27;;;;;;;1.10;1.00;;;;;;;;;;5014153;28;20195;-93
2023/07/24 00:59:57;;;;;;;1.23;1.13;;;;;;;;;;5009849;28;20200;-92
2023/07/24 01:02:24;;;;;;;1.70;1.60;;;;;;;;;;4999842;28;20192;-93
2023/07/24 01:04:52;;;;;;;0.90;0.90;;;;;;;;;;5000627;28;20184;-92
2023/07/24 01:07:20;;;;;;;1.55;1.27;;;;;;;;;;5000567;28;20200;-93
2023/07/24 01:09:50;;;;;;;1.30;1.20;;;;;;;;;;5000557;28;20180;-91
2023/07/24 01:12:24;;;;;;;1.40;1.05;;;;;;;;;;5000276;28;20192;-92
2023/07/24 01:14:58;;;;;;;0.93;0.93;;;;;;;;;;5000436;28;20240;-92
2023/07/24 01:17:26;;;;;;;1.20;1.20;;;;;;;;;;5000445;28;20200;-93
2023/07/24 01:19:57;;;;;;;1.20;1.20;;;;;;;;;;5000392;28;20187;-91
2023/07/24 01:22:38;;;;;;;1.60;1.50;;;;;;;;;;5000175;28;20205;-91
2023/07/24 01:25:11;;;;;;;1.20;1.10;;;;;;;;;;5000262;28;20184;-92
2023/07/24 01:27:45;;;;;;;1.33;1.23;;;;;;;;;;5014748;28;20222;-93
2023/07/24 01:30:15;;;;;;;0.90;0.90;;;;;;;;;;5019596;28;20209;-92
2023/07/24 01:32:42;;;;;;;1.35;1.25;;;;;;;;;;5019576;28;20200;-92
2023/07/24 01:35:10;;;;;;;1.00;1.00;;;;;;;;;;5019562;28;20222;-92
2023/07/24 01:37:40;;;;;;;1.20;1.10;;;;;;;;;;5019560;28;20206;-93
2023/07/24 01:40:09;;;;;;;1.10;1.10;;;;;;;;;;5019442;28;20183;-92
2023/07/24 01:42:37;;;;;;;1.38;1.27;;;;;;;;;;5019274;28;20231;-92
2023/07/24 01:45:08;;;;;;;3.45;1.50;;;;;;;;;;5019569;28;20187;-92
2023/07/24 01:47:35;;;;;;;1.15;1.15;;;;;;;;;;5019529;28;20263;-92
2023/07/24 01:50:03;;;;;;;1.20;1.10;;;;;;;;;;5019391;28;20183;-93
2023/07/24 01:52:31;;;;;;;0.90;0.90;;;;;;;;;;5018932;28;20199;-91
2023/07/24 01:54:58;;;;;;;1.20;1.10;;;;;;;;;;5019182;28;20219;-92
2023/07/24 01:57:26;;;;;;;1.15;1.15;;;;;;;;;;5018668;28;20195;-91
2023/07/24 01:59:54;;;;;;;1.40;1.30;;;;;;;;;;5018903;28;20192;-91
2023/07/24 02:02:23;;;;;;;1.42;1.33;;;;;;;;;;5018697;28;20202;-93
2023/07/24 02:04:50;;;;;;;1.20;1.20;;;;;;;;;;5019056;28;20206;-93
2023/07/24 02:07:18;;;;;;;2.33;1.20;;;;;;;;;;5019038;28;20195;-92
2023/07/24 02:09:46;;;;;;;0.98;0.98;;;;;;;;;;5018998;28;20200;-91
2023/07/24 02:12:14;;;;;;;2.85;1.10;;;;;;;;;;5018744;28;20218;-91
2023/07/24 02:14:41;;;;;;;1.08;1.02;;;;;;;;;;5018153;28;20172;-91
2023/07/24 02:17:09;;;;;;;1.00;1.00;;;;;;;;;;5018863;28;20180;-92
2023/07/24 02:19:38;;;;;;;1.20;1.10;;;;;;;;;;5019229;28;20179;-92
2023/07/24 02:22:06;;;;;;;0.98;0.98;;;;;;;;;;5018938;28;20211;-92
2023/07/24 02:24:33;;;;;;;2.03;1.08;;;;;;;;;;5019154;28;20200;-91
2023/07/24 02:27:02;;;;;;;2.20;1.40;;;;;;;;;;5016105;28;20216;-91
2023/07/24 02:29:29;;;;;;;1.00;1.00;;;;;;;;;;5014084;28;20190;-91
2023/07/24 02:31:58;;;;;;;1.40;1.30;;;;;;;;;;5018913;28;20196;-91
2023/07/24 02:34:26;;;;;;;1.35;1.25;;;;;;;;;;5019214;28;20354;-93
2023/07/24 02:36:55;;;;;;;1.58;1.35;;;;;;;;;;5019091;28;20296;-92
2023/07/24 02:39:23;;;;;;;0.80;0.80;;;;;;;;;;5019343;28;20180;-93
2023/07/24 02:41:50;;;;;;;1.27;1.20;;;;;;;;;;5018654;28;20204;-92
2023/07/24 02:44:18;;;;;;;1.75;1.08;;;;;;;;;;5019103;28;20178;-92
2023/07/24 02:46:46;;;;;;;1.02;1.00;;;;;;;;;;5018910;28;20194;-92
2023/07/24 02:49:13;;;;;;;1.17;1.08;;;;;;;;;;5018720;28;20186;-91
2023/07/24 02:51:41;;;;;;;1.48;1.38;;;;;;;;;;5018385;28;20192;-89
2023/07/24 02:54:10;;;;;;;1.20;1.10;;;;;;;;;;5018541;28;20183;-92
2023/07/24 02:56:39;;;;;;;1.50;1.40;;;;;;;;;;5017908;28;20238;-92
2023/07/24 02:59:06;;;;;;;1.40;1.30;;;;;;;;;;5006760;28;20264;-92
2023/07/24 03:01:34;;;;;;;1.20;1.10;;;;;;;;;;4998516;28;20216;-92
2023/07/24 03:04:02;;;;;;;1.58;1.48;;;;;;;;;;4998952;28;20180;-90
2023/07/24 03:06:30;;;;;;;1.17;1.17;;;;;;;;;;4998822;28;20177;-93
2023/07/24 03:08:58;;;;;;;1.40;1.30;;;;;;;;;;4998818;28;20216;-93
2023/07/24 03:11:27;;;;;;;1.30;1.20;;;;;;;;;;4998587;28;20203;-91
2023/07/24 03:13:54;;;;;;;1.08;1.08;;;;;;;;;;4998656;28;20192;-93
2023/07/24 03:16:22;;;;;;;1.88;1.77;;;;;;;;;;4998739;28;20220;-93
2023/07/24 03:18:50;;;;;;;1.50;1.40;;;;;;;;;;4998595;28;20184;-92
2023/07/24 03:21:18;;;;;;;1.52;1.42;;;;;;;;;;4998283;28;20212;-93
2023/07/24 03:23:46;;;;;;;1.10;1.10;;;;;;;;;;4998386;28;20185;-92
2023/07/24 03:26:13;;;;;;;1.48;1.38;;;;;;;;;;5003015;28;20195;-93
2023/07/24 03:28:42;;;;;;;1.20;1.15;;;;;;;;;;5021767;28;20191;-92
2023/07/24 03:31:10;;;;;;;1.30;1.27;;;;;;;;;;5021665;28;20218;-92
2023/07/24 03:33:38;;;;;;;1.48;1.38;;;;;;;;;;5021830;28;20191;-93
2023/07/24 03:36:06;;;;;;;1.33;1.23;;;;;;;;;;5021778;28;20195;-92
2023/07/24 03:38:34;;;;;;;1.00;1.00;;;;;;;;;;5020468;28;20211;-91
2023/07/24 03:41:01;;;;;;;1.50;1.02;;;;;;;;;;5011863;28;20208;-94
2023/07/24 03:43:29;;;;;;;1.25;1.15;;;;;;;;;;5011894;28;20219;-94
2023/07/24 03:45:58;;;;;;;1.40;1.30;;;;;;;;;;5011900;28;20226;-94
2023/07/24 03:48:25;;;;;;;1.20;1.20;;;;;;;;;;5011971;28;20219;-93
2023/07/24 03:51:00;;;;;;;2.20;1.90;;;;;;;;;;5011759;28;20250;-94
2023/07/24 03:53:28;;;;;;;1.15;1.13;;;;;;;;;;5012120;28;21164;-94
2023/07/24 03:55:56;;;;;;;1.77;1.67;;;;;;;;;;5011853;28;20227;-94
2023/07/24 03:58:24;;;;;;;1.40;1.13;;;;;;;;;;5011976;28;20215;-93
2023/07/24 04:00:51;;;;;;;1.20;1.20;;;;;;;;;;5011291;28;20234;-93
2023/07/24 04:03:20;;;;;;;1.50;1.40;;;;;;;;;;5011870;28;20257;-95
2023/07/24 04:05:48;;;;;;;1.70;1.60;;;;;;;;;;5012545;28;20200;-95
2023/07/24 04:08:16;;;;;;;1.13;1.13;;;;;;;;;;5012808;28;20188;-94
2023/07/24 04:10:43;;;;;;;1.20;1.10;;;;;;;;;;5012373;28;20200;-94
2023/07/24 04:13:11;;;;;;;1.42;1.33;;;;;;;;;;5012703;28;20239;-94
2023/07/24 04:15:39;;;;;;;1.10;1.10;;;;;;;;;;5013262;28;20203;-94
2023/07/24 04:18:07;;;;;;;1.60;1.40;;;;;;;;;;5013067;28;20211;-95
2023/07/24 04:20:36;;;;;;;1.23;1.13;;;;;;;;;;5013014;28;20196;-95
2023/07/24 04:23:03;;;;;;;1.30;1.20;;;;;;;;;;5013122;28;20192;-94
2023/07/24 04:25:31;;;;;;;1.27;1.17;;;;;;;;;;5013357;28;20503;-95
2023/07/24 04:27:59;;;;;;;1.42;1.20;;;;;;;;;;5012918;28;20192;-95
2023/07/24 04:30:26;;;;;;;1.40;1.30;;;;;;;;;;5012406;28;20188;-94
2023/07/24 04:32:54;;;;;;;1.40;1.15;;;;;;;;;;5012868;28;20223;-94
2023/07/24 04:35:23;;;;;;;1.35;1.25;;;;;;;;;;5012639;28;20191;-94
2023/07/24 04:37:52;;;;;;;1.50;1.40;;;;;;;;;;5012132;28;20244;-93
2023/07/24 04:40:20;;;;;;;1.20;1.10;;;;;;;;;;5012117;28;20195;-94
2023/07/24 04:42:48;;;;;;;1.38;1.27;;;;;;;;;;5012459;28;20219;-94
2023/07/24 04:45:15;;;;;;;1.20;1.10;;;;;;;;;;5012208;28;20675;-93
2023/07/24 04:47:43;;;;;;;1.50;1.45;;;;;;;;;;5013469;28;20192;-92
2023/07/24 04:50:11;;;;;;;0.95;0.95;;;;;;;;;;5013277;28;20207;-94
2023/07/24 04:52:39;;;;;;;1.08;1.08;;;;;;;;;;5013335;28;20211;-93
2023/07/24 04:55:09;;;;;;;1.10;1.00;;;;;;;;;;5013561;28;20196;-94
2023/07/24 04:57:36;;;;;;;1.40;1.30;;;;;;;;;;5015636;28;20231;-93
2023/07/24 05:00:06;;;;;;;2.08;1.30;;;;;;;;;;5016584;28;20199;-94
2023/07/24 05:02:34;;;;;;;1.27;1.20;;;;;;;;;;5013622;28;20207;-93
2023/07/24 05:05:02;;;;;;;1.33;1.23;;;;;;;;;;5015324;28;20195;-93
2023/07/24 05:07:29;;;;;;;1.10;1.10;;;;;;;;;;5014638;28;20200;-94
2023/07/24 05:09:57;;;;;;;1.15;1.13;;;;;;;;;;5013023;28;20211;-94
2023/07/24 05:12:26;;;;;;;1.40;1.30;;;;;;;;;;5012588;28;20211;-93
2023/07/24 05:14:54;;;;;;;1.38;1.27;;;;;;;;;;5012095;28;20203;-93
2023/07/24 05:17:22;;;;;;;1.50;1.38;;;;;;;;;;5011593;28;20227;-94
2023/07/24 05:19:49;;;;;;;1.60;1.50;;;;;;;;;;5011504;28;20200;-94
2023/07/24 05:22:17;;;;;;;1.70;1.60;;;;;;;;;;5011325;28;20207;-94
2023/07/24 05:24:45;;;;;;;1.30;1.20;;;;;;;;;;5011310;28;20393;-93
2023/07/24 05:27:12;;;;;;;1.08;1.08;;;;;;;;;;5010731;28;20196;-93
2023/07/24 05:29:41;;;;;;;1.30;1.20;;;;;;;;;;5010836;28;20200;-94
2023/07/24 05:32:09;;;;;;;1.00;1.00;;;;;;;;;;5010354;28;20203;-94
2023/07/24 05:34:37;;;;;;;1.30;1.20;;;;;;;;;;5010254;28;20203;-93
2023/07/24 05:37:06;;;;;;;1.98;1.77;;;;;;;;;;5010362;28;20227;-94
2023/07/24 05:39:33;;;;;;;2.13;1.40;;;;;;;;;;5011600;28;20187;-93
2023/07/24 05:42:01;;;;;;;1.50;1.50;;;;;;;;;;5010613;28;20199;-94
2023/07/24 05:44:29;;;;;;;1.77;1.67;;;;;;;;;;5004988;28;20185;-94
2023/07/24 05:46:58;;;;;;;1.38;1.27;;;;;;;;;;4999682;28;20219;-94
2023/07/24 05:49:26;;;;;;;1.42;1.33;;;;;;;;;;4999828;28;20185;-95
2023/07/24 05:51:54;;;;;;;1.42;1.33;;;;;;;;;;4999385;28;20200;-94
2023/07/24 05:54:21;;;;;;;1.40;1.30;;;;;;;;;;4999864;28;20227;-94
2023/07/24 05:56:49;;;;;;;1.40;1.30;;;;;;;;;;5005295;28;20187;-94
2023/07/24 05:59:16;;;;;;;1.27;1.27;;;;;;;;;;5010881;28;20188;-94
2023/07/24 06:01:44;;;;;;;1.77;1.67;;;;;;;;;;5018259;28;20231;-95
2023/07/24 06:04:13;;;;;;;2.38;2.17;;;;;;;;;;4999551;28;20200;-95
2023/07/24 06:06:41;;;;;;;4.38;1.85;;;;;;;;;;4999445;28;20184;-93
2023/07/24 06:09:08;;;;;;;1.95;1.83;;;;;;;;;;4999393;28;20184;-92
2023/07/24 06:11:36;;;;;;;1.92;1.65;;;;;;;;;;4999133;28;20188;-93
2023/07/24 06:14:04;;;;;;;1.60;1.50;;;;;;;;;;4999325;28;20189;-94
2023/07/24 06:16:31;;;;;;;2.22;2.00;;;;;;;;;;4999206;28;20212;-95
2023/07/24 06:18:59;;;;;;;2.10;1.90;;;;;;;;;;4999182;28;20196;-93
2023/07/24 06:21:28;;;;;;;1.58;1.48;;;;;;;;;;4998937;28;20204;-94
2023/07/24 06:23:56;;;;;;;1.60;1.48;;;;;;;;;;4999163;28;20195;-94
2023/07/24 06:26:24;;;;;;;1.67;1.58;;;;;;;;;;5001096;28;20184;-93
2023/07/24 06:28:51;;;;;;;1.67;1.58;;;;;;;;;;5010298;28;20228;-93
2023/07/24 06:31:19;;;;;;;1.45;1.35;;;;;;;;;;5018307;28;20187;-94
2023/07/24 06:33:46;;;;;;;2.03;1.83;;;;;;;;;;5018499;28;20180;-93
2023/07/24 06:36:14;;;;;;;2.22;2.03;;;;;;;;;;5018413;28;20184;-94
2023/07/24 06:38:43;;;;;;;2.10;1.92;;;;;;;;;;5018421;28;20231;-95
2023/07/24 06:41:11;;;;;;;2.45;2.25;;;;;;;;;;5018224;28;20203;-94
2023/07/24 06:43:39;;;;;;;2.40;1.90;;;;;;;;;;5018363;28;20246;-94
2023/07/24 06:46:07;;;;;;;2.13;1.92;;;;;;;;;;5018289;28;20172;-95
2023/07/24 06:48:35;;;;;;;2.67;2.42;;;;;;;;;;5018217;28;20180;-92
2023/07/24 06:51:02;;;;;;;2.13;2.00;;;;;;;;;;5017989;28;20213;-93
2023/07/24 06:53:30;;;;;;;2.55;1.95;;;;;;;;;;5018096;28;20198;-93
2023/07/24 06:55:59;;;;;;;2.25;2.15;;;;;;;;;;5018262;28;20192;-94
2023/07/24 06:58:27;;;;;;;2.78;1.98;;;;;;;;;;5009496;28;20219;-94
2023/07/24 07:00:55;;;;;;;3.05;2.83;;;;;;;;;;5017162;28;20224;-93
2023/07/24 07:03:22;;;;;;;2.03;1.80;;;;;;;;;;5018216;28;20192;-94
2023/07/24 07:05:59;;;;;;;2.42;2.22;;;;;;;;;;5018146;28;20187;-94
2023/07/24 07:08:26;;;;;;;1.98;1.85;;;;;;;;;;5018037;28;20203;-94
2023/07/24 07:11:01;;;;;;;1.75;1.65;;;;;;;;;;5017826;28;20195;-96
2023/07/24 07:13:28;;;;;;;2.58;2.38;;;;;;;;;;5018141;28;20188;-95
2023/07/24 07:15:56;;;;;;;2.80;2.10;;;;;;;;;;5017926;28;20183;-94
2023/07/24 07:18:25;;;;;;;3.30;2.33;;;;;;;;;;5018001;28;20227;-94
2023/07/24 07:20:54;;;;;;;3.00;2.60;;;;;;;;;;5017769;28;20251;-95
2023/07/24 07:23:22;;;;;;;2.45;2.13;;;;;;;;;;5017967;28;20235;-94
2023/07/24 07:25:51;;;;;;;2.60;2.30;;;;;;;;;;5018071;28;20227;-94
2023/07/24 07:28:21;;;;;;;2.28;2.08;;;;;;;;;;5009893;28;20212;-92
2023/07/24 07:30:49;;;;;;;5.25;2.97;;;;;;;;;;5018341;28;20196;-95
2023/07/24 07:33:21;;;;;;;3.88;3.40;;;;;;;;;;5165210;22;20220;-95
2023/07/24 07:35:49;;;;;;;2.58;2.20;;;;;;;;;;5000255;28;20173;-95
2023/07/24 07:38:17;;;;;;;2.60;2.40;;;;;;;;;;4999585;28;20185;-95
2023/07/24 07:40:45;;;;;;;2.78;2.53;;;;;;;;;;4999527;28;20240;-95
2023/07/24 08:01:08;;;;;;;3.30;2.70;;;;;;;;;;5027610;28;20281;-93
2023/07/24 08:03:35;;;;;;;3.95;2.58;;;;;;;;;;5033717;28;20222;-93
2023/07/24 08:06:03;;;;;;;2.80;2.60;;;;;;;;;;5403820;23;20240;-95
2023/07/24 08:08:34;;;;;;;4.22;3.30;;;;;;;;;;5018868;28;20180;-96
2023/07/24 08:11:06;;;;;;;4.97;3.03;;;;;;;;;;5018821;28;20172;-95
2023/07/24 08:13:37;;;;;;;2.75;2.13;;;;;;;;;;5020472;28;20192;-94
2023/07/24 08:16:18;;;;;;;7.85;2.95;;;;;;;;;;5020539;28;20195;-96
2023/07/24 08:18:47;;;;;;;2.47;2.28;;;;;;;;;;5020867;28;20263;-93
2023/07/24 08:21:15;;;;;;;3.17;2.95;;;;;;;;;;5020725;28;20265;-94
2023/07/24 08:23:43;;;;;;;3.83;2.70;;;;;;;;;;5020759;28;20183;-93
2023/07/24 08:26:11;;;;;;;3.17;2.83;;;;;;;;;;5020785;28;21192;-93
2023/07/24 08:28:41;;;;;;;5.07;4.07;;;;;;;;;;5001076;28;20188;-93
2023/07/24 08:31:12;;;;;;;4.20;3.80;;;;;;;;;;5000838;28;20252;-96
2023/07/24 08:33:39;;;;;;;3.15;2.85;;;;;;;;;;5001140;28;20204;-91
2023/07/24 08:36:09;;;;;;;3.33;3.03;;;;;;;;;;5000922;28;20183;-91
2023/07/24 08:38:37;;;;;;;2.58;2.38;;;;;;;;;;4993312;28;20212;-93
2023/07/24 08:41:09;;;;;;;2.75;2.55;;;;;;;;;;4990628;28;20228;-92
2023/07/24 08:43:38;;;;;;;2.33;2.13;;;;;;;;;;4987695;28;20276;-92
2023/07/24 08:46:07;;;;;;;12.25;4.03;;;;;;;;;;4988097;28;20232;-92
2023/07/24 08:48:38;;;;;;;4.53;2.50;;;;;;;;;;4988499;28;20252;-92
2023/07/24 08:51:07;;;;;;;8.25;3.78;;;;;;;;;;4990161;28;20244;-92
2023/07/24 08:53:36;;;;;;;2.60;2.40;;;;;;;;;;4983646;28;20230;-92
2023/07/24 08:56:04;;;;;;;2.90;2.60;;;;;;;;;;4988666;28;20208;-93
2023/07/24 08:58:32;;;;;;;3.83;2.90;;;;;;;;;;5010409;28;20234;-92
2023/07/24 09:01:00;;;;;;;2.45;2.25;;;;;;;;;;4994617;28;20228;-92
2023/07/24 09:03:28;;;;;;;2.05;1.95;;;;;;;;;;4993453;28;20223;-93
2023/07/24 09:05:57;;;;;;;2.60;2.40;;;;;;;;;;4993644;28;20205;-92
2023/07/24 09:08:31;;;;;;;2.05;1.90;;;;;;;;;;4993153;28;20204;-92
2023/07/24 09:10:59;;;;;;;2.30;2.10;;;;;;;;;;4993188;28;20228;-92
2023/07/24 09:13:27;;;;;;;3.65;2.90;;;;;;;;;;4992610;28;20232;-92
2023/07/24 09:15:55;;;;;;;4.20;2.55;;;;;;;;;;4993704;28;20220;-92
2023/07/24 09:18:23;;;;;;;4.75;3.03;;;;;;;;;;4991580;28;20211;-93
2023/07/24 09:20:51;;;;;;;13.13;4.13;;;;;;;;;;4996404;28;20247;-95
2023/07/24 09:23:28;;;;;;;3.70;3.40;;;;;;;;;;5000033;28;20191;-93
2023/07/24 09:25:56;;;;;;;2.70;2.50;;;;;;;;;;4999026;28;20198;-93
2023/07/24 09:28:24;;;;;;;2.92;2.70;;;;;;;;;;5008490;28;20208;-94
2023/07/24 09:30:56;;;;;;;3.13;2.83;;;;;;;;;;5018791;28;20227;-93
2023/07/24 09:33:24;;;;;;;2.97;2.78;;;;;;;;;;5011609;28;20214;-92
2023/07/24 09:36:02;;;;;;;3.63;2.60;;;;;;;;;;5016928;28;20207;-93
2023/07/24 09:38:31;;;;;;;3.83;3.28;;;;;;;;;;5019316;28;20222;-93
2023/07/24 09:40:59;;;;;;;3.08;2.83;;;;;;;;;;5019287;28;20235;-93
2023/07/24 09:43:28;;;;;;;2.88;2.67;;;;;;;;;;5019474;28;20187;-92
2023/07/24 09:45:56;;;;;;;3.30;3.00;;;;;;;;;;5018376;28;20207;-93
2023/07/24 09:48:26;;;;;;;8.05;3.97;;;;;;;;;;5018075;28;20198;-93
2023/07/24 09:50:56;;;;;;;3.58;3.17;;;;;;;;;;5017162;28;20207;-93
2023/07/24 09:53:29;;;;;;;4.13;2.70;;;;;;;;;;5012799;28;20227;-92
2023/07/24 09:56:00;;;;;;;3.90;2.83;;;;;;;;;;5013501;28;20200;-92
2023/07/24 09:58:28;;;;;;;2.72;2.30;;;;;;;;;;5011675;28;20235;-92
2023/07/24 10:00:56;;;;;;;9.15;3.47;;;;;;;;;;5009525;28;20251;-93
2023/07/24 10:03:24;;;;;;;4.03;2.47;;;;;;;;;;5011524;28;20231;-92
2023/07/24 10:05:51;;;;;;;3.78;3.38;;;;;;;;;;5014565;28;20223;-92
2023/07/24 10:08:20;;;;;;;3.38;2.30;;;;;;;;;;5015182;28;20227;-92
2023/07/24 10:10:51;;;;;;;12.73;3.15;;;;;;;;;;5013336;28;20254;-92
2023/07/24 10:13:20;;;;;;;4.03;2.92;;;;;;;;;;5008593;28;20290;-92
2023/07/24 10:15:49;;;;;;;3.53;2.75;;;;;;;;;;5009965;28;20219;-92
2023/07/24 10:18:18;;;;;;;2.88;2.67;;;;;;;;;;5014991;28;20208;-93
2023/07/24 10:20:47;;;;;;;10.88;8.20;;;;;;;;;;5016416;28;20180;-93
2023/07/24 10:23:19;;;;;;;8.90;5.53;;;;;;;;;;5017867;28;20256;-93
2023/07/24 10:25:52;;;;;;;4.97;3.55;;;;;;;;;;5017398;28;20219;-94
2023/07/24 10:28:30;;;;;;;3.08;2.88;;;;;;;;;;5004598;28;20192;-92
2023/07/24 10:30:58;;;;;;;2.97;2.70;;;;;;;;;;4994048;28;20240;-93
2023/07/24 10:33:25;;;;;;;3.15;2.90;;;;;;;;;;4998176;28;20192;-93
2023/07/24 10:36:04;;;;;;;2.63;2.42;;;;;;;;;;4994804;28;20200;-93
2023/07/24 10:38:36;;;;;;;4.32;3.95;;;;;;;;;;4998741;28;20184;-95
2023/07/24 10:41:06;;;;;;;4.40;4.00;;;;;;;;;;4997735;28;20235;-95
2023/07/24 10:43:44;;;;;;;4.15;3.78;;;;;;;;;;4998667;28;20200;-94
2023/07/24 10:46:12;;;;;;;3.10;2.90;;;;;;;;;;4998770;28;20193;-93
2023/07/24 10:48:43;;;;;;;3.80;3.40;;;;;;;;;;4998696;28;20193;-93
2023/07/24 10:51:14;;;;;;;3.40;3.08;;;;;;;;;;4998372;28;20247;-94
2023/07/24 10:53:44;;;;;;;2.63;2.42;;;;;;;;;;4998823;28;20192;-93
2023/07/24 10:56:13;;;;;;;3.90;3.50;;;;;;;;;;4997955;28;20236;-93
2023/07/24 10:58:42;;;;;;;4.40;4.00;;;;;;;;;;5014498;28;20203;-93
2023/07/24 11:01:11;;;;;;;19.88;4.88;;;;;;;;;;5009943;28;20234;-92
2023/07/24 11:03:41;;;;;;;3.08;2.83;;;;;;;;;;5016667;28;20207;-94
2023/07/24 11:06:15;;;;;;;3.00;2.80;;;;;;;;;;5015184;28;20188;-94
2023/07/24 11:08:43;;;;;;;2.83;2.63;;;;;;;;;;5017318;28;20210;-93
2023/07/24 11:11:12;;;;;;;3.60;3.10;;;;;;;;;;5015649;28;20251;-93
2023/07/24 11:13:40;;;;;;;3.42;3.13;;;;;;;;;;5014975;28;20211;-93
2023/07/24 11:16:10;;;;;;;3.58;3.28;;;;;;;;;;5014032;28;20215;-93
2023/07/24 11:18:47;;;;;;;3.13;2.83;;;;;;;;;;5012344;28;20187;-95
2023/07/24 11:21:16;;;;;;;3.38;3.03;;;;;;;;;;5013535;28;20243;-94
2023/07/24 11:23:51;;;;;;;4.88;3.78;;;;;;;;;;5016027;28;20199;-91
2023/07/24 11:26:21;;;;;;;3.75;3.45;;;;;;;;;;5016065;28;20195;-94
2023/07/24 11:28:49;;;;;;;3.22;3.03;;;;;;;;;;5013685;28;20270;-94
2023/07/24 11:31:31;;;;;;;3.80;2.80;;;;;;;;;;4997586;28;20223;-94
2023/07/24 11:33:58;;;;;;;2.97;2.78;;;;;;;;;;4997377;28;20199;-93
2023/07/24 11:36:26;;;;;;;2.80;2.60;;;;;;;;;;4996346;28;20208;-94
2023/07/24 11:38:54;;;;;;;4.03;2.85;;;;;;;;;;4997940;28;20200;-94
2023/07/24 11:41:22;;;;;;;2.75;2.55;;;;;;;;;;4995830;28;20243;-93
2023/07/24 11:43:51;;;;;;;2.90;2.70;;;;;;;;;;4994179;28;20200;-93
2023/07/24 11:46:27;;;;;;;2.88;2.67;;;;;;;;;;4997151;28;20231;-93
2023/07/24 11:48:56;;;;;;;5.55;3.00;;;;;;;;;;4998287;28;20193;-93
2023/07/24 11:51:25;;;;;;;3.65;2.10;;;;;;;;;;4995872;28;20231;-93
2023/07/24 11:53:53;;;;;;;2.83;2.63;;;;;;;;;;4995300;28;20236;-93
2023/07/24 11:56:22;;;;;;;2.28;2.08;;;;;;;;;;4994508;28;20227;-92
2023/07/24 11:58:50;;;;;;;2.00;1.90;;;;;;;;;;5010977;28;20196;-92
2023/07/24 12:01:18;;;;;;;4.35;2.67;;;;;;;;;;4998123;28;20200;-92
2023/07/24 12:03:47;;;;;;;6.75;3.70;;;;;;;;;;4989313;28;20212;-92
2023/07/24 12:06:19;;;;;;;3.60;3.30;;;;;;;;;;4988883;28;20248;-94
2023/07/24 12:08:47;;;;;;;2.72;2.53;;;;;;;;;;4994186;28;20219;-93
2023/07/24 12:11:18;;;;;;;4.15;3.13;;;;;;;;;;4999987;28;20248;-94
2023/07/24 12:13:46;;;;;;;2.58;2.38;;;;;;;;;;5001292;28;20199;-95
2023/07/24 12:16:14;;;;;;;2.83;2.63;;;;;;;;;;5001228;28;20189;-93
2023/07/24 12:18:41;;;;;;;2.55;2.35;;;;;;;;;;4990474;28;20204;-92
2023/07/24 12:21:10;;;;;;;2.22;2.10;;;;;;;;;;4993491;28;20235;-92
2023/07/24 12:23:38;;;;;;;2.47;2.28;;;;;;;;;;5001050;28;20180;-95
2023/07/24 12:26:06;;;;;;;2.30;2.10;;;;;;;;;;5001242;28;20203;-94
2023/07/24 12:28:36;;;;;;;2.25;2.05;;;;;;;;;;5005957;28;20212;-93
2023/07/24 12:34:01;;;;;;;5.20;4.65;;;;;;;;;;5125391;27;1552082;-94
2023/07/24 12:36:32;;;;;;;3.03;2.83;;;;;;;;;;5155382;27;20202;-94
2023/07/24 12:38:59;;;;;;;2.80;2.47;;;;;;;;;;5182056;22;20217;-96
2023/07/24 12:41:27;;;;;;;3.63;2.72;;;;;;;;;;5081450;28;20209;-95
2023/07/24 12:43:55;;;;;;;3.80;2.83;;;;;;;;;;5094706;28;20185;-93
2023/07/24 12:48:57;;;;;;;3.17;2.42;;;;;;;;;;5102610;22;20222;-96
2023/07/24 12:51:27;;;;;;;2.65;2.45;;;;;;;;;;5086769;23;20215;-96
2023/07/24 12:53:55;;;;;;;3.00;2.80;;;;;;;;;;5036174;28;20214;-96
2023/07/24 12:56:22;;;;;;;3.05;2.72;;;;;;;;;;5036174;28;20172;-95
2023/07/24 12:58:50;;;;;;;3.30;3.10;;;;;;;;;;5035938;28;20210;-96
2023/07/24 13:01:18;;;;;;;2.25;2.03;;;;;;;;;;5016134;28;20179;-95
2023/07/24 13:03:45;;;;;;;2.55;2.35;;;;;;;;;;5016466;28;20176;-95
2023/07/24 13:06:14;;;;;;;2.78;2.58;;;;;;;;;;5015536;28;20184;-96
2023/07/24 13:08:43;;;;;;;2.90;2.70;;;;;;;;;;5014826;28;20184;-95
2023/07/24 20:43:28;;;;;;;2.80;2.60;;;;;;;;;;4998469;28;20180;-96
2023/07/24 20:46:01;;;;;;;2.75;2.28;;;;;;;;;;5000073;28;20173;-96
2023/07/24 20:48:37;;;;;;;2.60;2.40;;;;;;;;;;4999774;28;20179;-96
2023/07/24 20:51:22;;;;;;;3.13;2.92;;;;;;;;;;4999563;28;20195;-96
2023/07/24 20:53:52;;;;;;;2.75;2.45;;;;;;;;;;5001025;28;20200;-94
2023/07/24 20:56:21;;;;;;;2.05;1.95;;;;;;;;;;5002619;28;20243;-94
2023/07/24 20:58:50;;;;;;;2.67;2.47;;;;;;;;;;4992593;28;20181;-95
2023/07/24 21:01:22;;;;;;;2.25;2.15;;;;;;;;;;4984537;28;20180;-93
2023/07/24 21:03:53;;;;;;;2.50;2.30;;;;;;;;;;4984833;29;20232;-93
2023/07/24 21:06:20;;;;;;;2.90;2.35;;;;;;;;;;4984381;29;20177;-94
2023/07/24 21:08:48;;;;;;;2.30;2.10;;;;;;;;;;4984086;28;20180;-94
2023/07/24 21:11:16;;;;;;;2.00;1.90;;;;;;;;;;4983747;28;20174;-96
2023/07/24 21:13:44;;;;;;;3.47;2.00;;;;;;;;;;4983869;28;20173;-94
2023/07/24 21:16:13;;;;;;;1.92;1.83;;;;;;;;;;4983755;28;20197;-94
2023/07/24 21:18:41;;;;;;;1.77;1.58;;;;;;;;;;4983820;28;20180;-96
2023/07/24 21:21:10;;;;;;;2.97;2.13;;;;;;;;;;4983137;28;20173;-96
2023/07/24 21:23:38;;;;;;;1.63;1.52;;;;;;;;;;4983529;28;20189;-95
2023/07/24 21:26:06;;;;;;;2.70;2.50;;;;;;;;;;4983618;28;20174;-94
2023/07/24 21:28:33;;;;;;;3.42;1.90;;;;;;;;;;4996012;28;20200;-96
2023/07/24 21:31:09;;;;;;;1.80;1.70;;;;;;;;;;5002565;28;20189;-96
2023/07/24 21:33:38;;;;;;;1.52;1.42;;;;;;;;;;5002978;28;20175;-96
2023/07/24 21:36:06;;;;;;;1.20;1.17;;;;;;;;;;5002846;28;20216;-96
2023/07/24 21:38:34;;;;;;;1.60;1.50;;;;;;;;;;5002793;28;20177;-96
2023/07/24 21:41:02;;;;;;;1.50;1.40;;;;;;;;;;5002363;28;20183;-95
2023/07/24 21:43:30;;;;;;;2.03;1.83;;;;;;;;;;5002799;28;20196;-96
2023/07/24 21:45:57;;;;;;;1.45;1.42;;;;;;;;;;5002775;28;20172;-96
2023/07/24 21:48:25;;;;;;;1.85;1.75;;;;;;;;;;5002620;28;20278;-95
2023/07/24 21:50:54;;;;;;;2.13;2.00;;;;;;;;;;5002318;28;20173;-96
2023/07/24 21:53:23;;;;;;;1.95;1.70;;;;;;;;;;5002591;28;20184;-96
2023/07/24 21:55:51;;;;;;;1.50;1.40;;;;;;;;;;5002430;28;20187;-96
2023/07/24 21:58:18;;;;;;;1.15;1.05;;;;;;;;;;4984916;28;20193;-96
2023/07/24 22:00:46;;;;;;;1.50;1.40;;;;;;;;;;4982540;28;20185;-96
2023/07/24 22:03:14;;;;;;;2.08;1.92;;;;;;;;;;4983040;29;20328;-96
2023/07/24 22:05:41;;;;;;;1.42;1.33;;;;;;;;;;4982452;28;20342;-95
2023/07/24 22:08:11;;;;;;;1.70;1.60;;;;;;;;;;4982926;29;20173;-96
2023/07/24 22:10:38;;;;;;;1.42;1.33;;;;;;;;;;4982580;29;20184;-95
2023/07/24 22:13:06;;;;;;;2.15;1.95;;;;;;;;;;4982781;29;20173;-96
2023/07/24 22:15:34;;;;;;;2.15;2.05;;;;;;;;;;4982622;29;20177;-96
2023/07/24 22:18:01;;;;;;;2.00;1.85;;;;;;;;;;4982769;29;20173;-96
2023/07/24 22:20:29;;;;;;;1.67;1.58;;;;;;;;;;4982445;29;20184;-96
2023/07/24 22:22:57;;;;;;;1.85;1.75;;;;;;;;;;4982807;29;20170;-96
2023/07/24 22:25:26;;;;;;;2.70;1.77;;;;;;;;;;4982382;29;20181;-96
2023/07/24 22:27:54;;;;;;;1.73;1.50;;;;;;;;;;4989623;28;20193;-96
2023/07/24 22:30:21;;;;;;;1.40;1.30;;;;;;;;;;4990791;28;20193;-96
2023/07/24 22:32:49;;;;;;;1.42;1.33;;;;;;;;;;4982413;28;20173;-95
2023/07/24 22:35:17;;;;;;;4.10;1.67;;;;;;;;;;4982186;28;20177;-94
2023/07/24 22:37:45;;;;;;;1.45;1.35;;;;;;;;;;4982240;28;20234;-95
2023/07/24 22:40:14;;;;;;;1.60;1.50;;;;;;;;;;4982100;28;20189;-95
2023/07/24 22:42:43;;;;;;;2.38;2.17;;;;;;;;;;4981893;28;20185;-96
2023/07/24 22:45:11;;;;;;;1.50;1.40;;;;;;;;;;4982219;28;20184;-94
2023/07/24 22:47:39;;;;;;;1.85;1.70;;;;;;;;;;4981332;28;20177;-95